Time;durP1;ratioP1;P1;durP2;ratioP2;P2;SDS_P1;SDS_P2;PMS_P1;PMS_P2;Temp;Humidity;BMP_temperature;BMP_pressure;BME280_temperature;BME280_humidity;BME280_pressure;Samples;Min_cycle;Max_cycle;Signal;HPM_P1;HPM_P2
2022/03/28 00:00:01;;;;;;;8.30;6.57;;;;;;;5.73;76.57;96746.31;5002507;28;24437;-73
2022/03/28 00:02:28;;;;;;;10.32;6.97;;;;;;;5.76;76.16;96741.09;5011112;28;24443;-74
2022/03/28 00:04:54;;;;;;;10.73;6.95;;;;;;;5.79;75.71;96738.44;5010910;28;24494;-74
2022/03/28 00:07:21;;;;;;;10.77;7.03;;;;;;;5.88;75.60;96737.34;5011223;28;24810;-73
2022/03/28 00:09:47;;;;;;;9.48;6.65;;;;;;;5.85;77.01;96737.41;5010813;28;24838;-74
2022/03/28 00:12:14;;;;;;;11.57;7.65;;;;;;;5.69;75.41;96738.75;5010241;28;24459;-73
2022/03/28 00:14:41;;;;;;;15.60;8.25;;;;;;;5.63;76.01;96736.34;5010620;28;24969;-73
2022/03/28 00:17:09;;;;;;;13.73;8.88;;;;;;;5.46;75.90;96726.53;5010801;28;24462;-73
2022/03/28 00:19:35;;;;;;;12.43;7.90;;;;;;;5.31;75.69;96732.94;5009798;28;24511;-73
2022/03/28 00:22:02;;;;;;;21.88;8.57;;;;;;;5.00;77.32;96725.16;5010866;28;24420;-74
2022/03/28 00:24:28;;;;;;;14.33;9.07;;;;;;;4.91;79.25;96722.84;5010815;28;24444;-74
2022/03/28 00:26:55;;;;;;;11.87;8.80;;;;;;;4.96;78.66;96719.25;5010283;28;24437;-73
2022/03/28 00:29:22;;;;;;;15.93;8.18;;;;;;;5.02;78.47;96716.56;5010307;28;25021;-73
2022/03/28 00:31:49;;;;;;;11.18;8.80;;;;;;;5.10;77.84;96716.34;5011060;28;24515;-73
2022/03/28 00:34:21;;;;;;;12.45;7.75;;;;;;;5.20;76.92;96712.66;5010523;28;24479;-73
2022/03/28 00:36:48;;;;;;;10.65;8.00;;;;;;;5.24;75.35;96706.56;5010506;28;24437;-73
2022/03/28 00:39:16;;;;;;;12.93;8.60;;;;;;;5.03;76.31;96710.53;5010691;28;24440;-75
2022/03/28 00:41:42;;;;;;;13.32;8.55;;;;;;;4.70;79.31;96701.13;5010731;28;24440;-74
2022/03/28 00:44:09;;;;;;;14.90;8.95;;;;;;;4.58;79.91;96700.53;5010526;28;24482;-73
2022/03/28 00:46:36;;;;;;;12.85;8.45;;;;;;;4.59;81.07;96701.38;5010356;28;24462;-73
2022/03/28 00:49:02;;;;;;;13.65;9.27;;;;;;;4.63;81.77;96702.13;5010658;28;24428;-73
2022/03/28 00:51:30;;;;;;;9.73;8.38;;;;;;;4.68;81.90;96695.19;5010210;28;24810;-73
2022/03/28 00:53:57;;;;;;;12.65;9.07;;;;;;;4.76;81.61;96688.13;5010460;28;24451;-74
2022/03/28 00:56:24;;;;;;;18.02;8.68;;;;;;;4.76;80.44;96690.72;5010558;28;24842;-73
2022/03/28 00:58:50;;;;;;;12.20;8.33;;;;;;;4.80;80.10;96687.19;5010374;28;24452;-73
2022/03/28 01:01:17;;;;;;;14.60;8.05;;;;;;;4.83;79.67;96697.38;5010206;28;24439;-74
2022/03/28 01:03:44;;;;;;;12.45;8.18;;;;;;;4.85;79.25;96687.88;5010228;28;24440;-73
2022/03/28 01:06:10;;;;;;;13.85;7.78;;;;;;;4.83;78.54;96687.09;5009970;28;24447;-74
2022/03/28 01:08:38;;;;;;;14.88;8.20;;;;;;;4.76;78.42;96690.72;5009826;28;24428;-74
2022/03/28 01:11:09;;;;;;;11.52;8.52;;;;;;;4.71;79.20;96692.53;5010082;28;24444;-73
2022/03/28 01:13:37;;;;;;;11.93;8.35;;;;;;;4.78;78.78;96689.78;5010126;28;24444;-74
2022/03/28 01:16:05;;;;;;;10.75;8.52;;;;;;;4.79;78.63;96686.34;5010647;28;24425;-73
2022/03/28 01:18:31;;;;;;;12.15;8.88;;;;;;;4.88;77.99;96684.41;5010203;28;24448;-73
2022/03/28 01:20:59;;;;;;;15.03;9.07;;;;;;;4.86;77.69;96676.75;5010030;28;24572;-73
2022/03/28 01:23:26;;;;;;;12.90;8.50;;;;;;;4.86;76.59;96676.75;5010417;28;24452;-74
2022/03/28 01:25:54;;;;;;;12.23;8.73;;;;;;;4.64;76.92;96679.03;5013398;28;24429;-73
2022/03/28 01:28:21;;;;;;;10.30;8.48;;;;;;;4.60;75.93;96682.56;5014119;28;24470;-73
2022/03/28 01:30:48;;;;;;;12.07;8.43;;;;;;;4.41;78.07;96671.88;5013838;28;24838;-73
2022/03/28 01:33:15;;;;;;;13.93;8.13;;;;;;;4.27;79.12;96671.38;4994119;28;24412;-73
2022/03/28 01:35:43;;;;;;;11.98;8.30;;;;;;;4.21;79.14;96669.78;5000820;28;24439;-73
2022/03/28 01:38:12;;;;;;;9.57;7.57;;;;;;;4.21;79.85;96669.78;5013465;28;24494;-74
2022/03/28 01:40:41;;;;;;;8.77;7.70;;;;;;;4.24;79.67;96667.16;5013358;28;25001;-74
2022/03/28 01:43:08;;;;;;;12.15;8.00;;;;;;;4.19;79.40;96665.56;5013562;28;24806;-74
2022/03/28 01:45:35;;;;;;;13.20;8.43;;;;;;;4.13;80.00;96669.97;5013814;28;24444;-74
2022/03/28 01:48:01;;;;;;;8.93;7.90;;;;;;;4.09;80.53;96662.41;5013419;28;24486;-73
2022/03/28 01:50:28;;;;;;;12.93;8.02;;;;;;;4.10;80.51;96656.38;5013463;28;24448;-73
2022/03/28 01:52:54;;;;;;;13.20;8.10;;;;;;;4.10;80.74;96658.94;5013528;28;24427;-73
2022/03/28 01:55:23;;;;;;;9.82;7.57;;;;;;;4.09;80.65;96655.53;5013330;28;24490;-74
2022/03/28 01:57:51;;;;;;;14.20;8.60;;;;;;;4.08;80.95;96656.44;5013180;28;24482;-73
2022/03/28 02:00:20;;;;;;;13.05;8.23;;;;;;;4.05;82.44;96659.06;5012891;28;24518;-73
2022/03/28 02:02:47;;;;;;;9.85;8.02;;;;;;;4.05;82.81;96655.66;5013085;28;24464;-73
2022/03/28 02:05:15;;;;;;;10.10;7.43;;;;;;;4.05;82.45;96645.41;5013017;28;25012;-72
2022/03/28 02:07:43;;;;;;;9.55;7.63;;;;;;;4.03;83.13;96652.28;5013203;28;24540;-73
2022/03/28 02:10:13;;;;;;;10.40;7.65;;;;;;;4.03;83.01;96647.97;5012897;28;24439;-73
2022/03/28 02:12:41;;;;;;;8.40;7.50;;;;;;;3.98;83.71;96641.28;5013442;28;24444;-73
2022/03/28 02:15:10;;;;;;;15.75;9.02;;;;;;;3.92;82.88;96641.41;5012223;28;25077;-73
2022/03/28 02:17:37;;;;;;;11.73;8.38;;;;;;;3.92;83.68;96642.25;5012900;28;24540;-73
2022/03/28 02:20:05;;;;;;;17.63;8.48;;;;;;;3.91;82.59;96642.31;5012502;28;24482;-71
2022/03/28 02:22:32;;;;;;;12.70;8.32;;;;;;;3.91;82.18;96640.56;5013099;28;24434;-71
2022/03/28 02:24:58;;;;;;;12.18;7.75;;;;;;;3.83;82.06;96630.50;5012904;28;24452;-73
2022/03/28 02:27:25;;;;;;;11.73;7.93;;;;;;;3.74;83.04;96640.09;5012652;28;24441;-73
2022/03/28 02:29:52;;;;;;;11.80;7.60;;;;;;;3.70;82.31;96631.63;5012565;28;24443;-73
2022/03/28 02:32:19;;;;;;;21.17;8.07;;;;;;;3.61;82.40;96630.13;5012906;28;24441;-73
2022/03/28 02:34:46;;;;;;;12.27;8.50;;;;;;;3.49;81.78;96625.28;5012448;28;24456;-73
2022/03/28 02:37:12;;;;;;;10.02;8.23;;;;;;;3.45;82.35;96626.22;5012563;28;24459;-73
2022/03/28 02:39:39;;;;;;;13.80;8.20;;;;;;;3.34;83.56;96623.88;5012139;28;24459;-73
2022/03/28 02:42:07;;;;;;;14.23;8.98;;;;;;;3.31;85.47;96621.38;5012405;28;24989;-73
2022/03/28 02:44:33;;;;;;;11.40;8.65;;;;;;;3.32;84.73;96620.50;5012385;28;24502;-74
2022/03/28 02:47:04;;;;;;;10.38;8.30;;;;;;;3.33;85.79;96626.47;5012544;28;24483;-74
2022/03/28 02:49:30;;;;;;;11.63;8.27;;;;;;;3.39;85.00;96618.66;5012282;28;24434;-73
2022/03/28 02:51:57;;;;;;;13.40;7.78;;;;;;;3.45;84.14;96618.53;5012478;28;24981;-73
2022/03/28 02:54:23;;;;;;;12.60;8.13;;;;;;;3.50;84.07;96615.88;5011984;28;25080;-73
2022/03/28 02:56:50;;;;;;;11.83;7.67;;;;;;;3.53;82.81;96611.53;5011931;28;24444;-73
2022/03/28 02:59:16;;;;;;;10.23;7.23;;;;;;;3.51;83.01;96612.44;5011793;28;24455;-75
2022/03/28 03:01:44;;;;;;;14.95;8.55;;;;;;;3.50;84.42;96614.16;5012239;28;24540;-73
2022/03/28 03:04:12;;;;;;;12.95;8.02;;;;;;;3.46;85.09;96606.56;5011925;28;24451;-73
2022/03/28 03:06:38;;;;;;;11.13;8.02;;;;;;;3.43;85.09;96604.91;5011778;28;24830;-73
2022/03/28 03:09:04;;;;;;;9.77;7.43;;;;;;;3.46;85.50;96607.41;5011823;28;25277;-73
2022/03/28 03:11:31;;;;;;;8.00;7.10;;;;;;;3.47;84.70;96601.41;5011489;28;24484;-73
2022/03/28 03:13:57;;;;;;;9.60;7.40;;;;;;;3.49;85.07;96604.78;5035298;23;24464;-72
2022/03/28 03:16:24;;;;;;;14.40;8.32;;;;;;;3.48;85.55;96603.09;5012027;28;24440;-72
2022/03/28 03:18:50;;;;;;;8.88;7.45;;;;;;;3.52;86.62;96604.72;5023623;28;24535;-72
2022/03/28 03:21:18;;;;;;;15.02;7.47;;;;;;;3.54;87.30;96597.00;5031017;28;24439;-72
2022/03/28 03:23:45;;;;;;;11.88;7.45;;;;;;;3.56;86.76;96598.66;5013862;28;24439;-73
2022/03/28 03:26:11;;;;;;;9.63;7.47;;;;;;;3.53;86.09;96591.03;5029690;28;24489;-72
2022/03/28 03:28:38;;;;;;;8.25;7.20;;;;;;;3.55;85.55;96593.56;5031348;28;24432;-72
2022/03/28 03:31:04;;;;;;;9.57;7.65;;;;;;;3.22;89.42;96595.13;5031088;28;24436;-72
2022/03/28 03:33:31;;;;;;;17.92;8.38;;;;;;;3.08;92.15;96598.81;5030715;28;25292;-72
2022/03/28 03:36:00;;;;;;;8.57;7.00;;;;;;;3.21;90.94;96593.44;5031047;28;24995;-72
2022/03/28 03:38:27;;;;;;;9.18;7.15;;;;;;;3.21;87.06;96589.16;5031555;28;24440;-72
2022/03/28 03:40:54;;;;;;;10.75;7.32;;;;;;;3.11;87.41;96588.50;5030674;28;24471;-72
2022/03/28 03:43:21;;;;;;;10.45;7.40;;;;;;;3.09;87.40;96589.41;5031186;28;24428;-72
2022/03/28 03:45:48;;;;;;;13.13;7.53;;;;;;;3.03;89.06;96580.13;5022560;28;24531;-72
2022/03/28 03:48:14;;;;;;;13.55;8.13;;;;;;;3.07;89.09;96583.47;5030244;28;24438;-72
2022/03/28 03:50:41;;;;;;;8.15;7.22;;;;;;;3.00;88.97;96580.19;5030834;28;24428;-72
2022/03/28 03:53:08;;;;;;;11.13;8.25;;;;;;;3.05;88.31;96592.91;5030682;28;24439;-73
2022/03/28 03:55:37;;;;;;;11.23;7.40;;;;;;;3.03;89.38;96592.09;5030596;28;24797;-73
2022/03/28 03:58:03;;;;;;;13.93;7.82;;;;;;;3.06;89.93;96582.63;5030733;28;24488;-72
2022/03/28 04:00:30;;;;;;;11.15;7.88;;;;;;;3.06;89.13;96584.34;5029103;28;24497;-72
2022/03/28 04:02:56;;;;;;;8.93;7.53;;;;;;;3.04;88.72;96591.22;5028722;28;24435;-73
2022/03/28 04:05:23;;;;;;;10.85;8.30;;;;;;;3.01;88.66;96589.56;5023836;28;24448;-72
2022/03/28 04:07:49;;;;;;;10.93;7.80;;;;;;;2.90;89.73;96586.38;5028737;28;24431;-73
2022/03/28 04:10:16;;;;;;;10.35;7.72;;;;;;;2.88;89.93;96577.88;5029139;28;24432;-72
2022/03/28 04:12:44;;;;;;;8.25;7.22;;;;;;;2.87;89.63;96579.59;5027970;28;24436;-72
2022/03/28 04:15:11;;;;;;;14.43;8.48;;;;;;;2.84;89.29;96579.66;5028952;28;24596;-73
2022/03/28 04:17:41;;;;;;;15.02;8.00;;;;;;;2.83;89.34;96582.25;5028811;28;24435;-72
2022/03/28 04:20:10;;;;;;;14.18;8.07;;;;;;;2.82;89.09;96580.59;5026903;28;24482;-72
2022/03/28 04:22:36;;;;;;;10.50;7.70;;;;;;;2.71;87.73;96574.78;5024530;28;24462;-72
2022/03/28 04:25:03;;;;;;;10.68;7.47;;;;;;;2.68;87.66;96578.28;5029960;28;24447;-74
2022/03/28 04:27:29;;;;;;;10.82;7.55;;;;;;;2.59;87.20;96581.81;5021319;28;24443;-74
2022/03/28 04:29:57;;;;;;;9.65;7.93;;;;;;;2.56;88.26;96587.03;5022412;28;24428;-72
2022/03/28 04:32:24;;;;;;;12.27;7.37;;;;;;;2.58;87.96;96579.31;5019651;28;24444;-75
2022/03/28 04:34:52;;;;;;;10.68;7.80;;;;;;;2.54;87.62;96580.25;5028893;28;24443;-75
2022/03/28 04:37:18;;;;;;;11.95;7.70;;;;;;;2.34;88.41;96573.78;5022690;28;24435;-75
2022/03/28 04:39:45;;;;;;;13.02;7.47;;;;;;;2.30;88.41;96579.81;5029283;28;24455;-72
2022/03/28 04:42:11;;;;;;;10.70;7.45;;;;;;;2.25;89.28;96578.19;5025423;28;24502;-72
2022/03/28 04:44:38;;;;;;;11.88;7.50;;;;;;;2.28;90.05;96568.75;5019175;28;24846;-72
2022/03/28 04:47:06;;;;;;;11.87;7.90;;;;;;;2.27;90.50;96573.91;5023178;28;24526;-73
2022/03/28 04:49:33;;;;;;;11.60;8.35;;;;;;;2.27;91.26;96579.03;5020820;28;24424;-73
2022/03/28 04:52:00;;;;;;;10.38;7.78;;;;;;;2.29;92.98;96564.50;5023655;28;24971;-73
2022/03/28 04:54:27;;;;;;;10.85;8.50;;;;;;;2.35;93.28;96575.47;5021759;28;24444;-73
2022/03/28 04:56:53;;;;;;;12.18;9.32;;;;;;;2.21;95.82;96566.34;5022777;28;24439;-75
2022/03/28 04:59:20;;;;;;;14.20;8.30;;;;;;;2.25;95.60;96573.91;5025111;28;24467;-75
2022/03/28 05:01:46;;;;;;;11.93;7.90;;;;;;;2.37;95.06;96572.88;5023494;28;25065;-75
2022/03/28 05:04:14;;;;;;;12.27;8.37;;;;;;;2.46;94.76;96575.28;5023019;28;24440;-75
2022/03/28 05:06:41;;;;;;;15.30;8.82;;;;;;;2.54;94.55;96575.13;5025390;28;24440;-74
2022/03/28 05:09:07;;;;;;;12.10;8.13;;;;;;;2.59;93.60;96573.31;5021747;28;24447;-75
2022/03/28 05:11:33;;;;;;;11.90;8.10;;;;;;;2.61;92.64;96572.44;5026763;28;24440;-76
2022/03/28 05:14:00;;;;;;;11.82;8.50;;;;;;;2.60;93.09;96573.31;5026000;28;24436;-75
2022/03/28 05:16:27;;;;;;;10.85;9.13;;;;;;;2.63;92.80;96578.38;5021427;28;24528;-74
2022/03/28 05:18:53;;;;;;;15.38;8.77;;;;;;;2.69;92.62;96576.56;5029784;28;24436;-74
2022/03/28 05:21:21;;;;;;;14.63;9.85;;;;;;;2.74;91.77;96569.63;5028175;28;24809;-74
2022/03/28 05:23:47;;;;;;;14.48;10.27;;;;;;;2.77;92.11;96567.84;5027390;28;24439;-74
2022/03/28 05:26:14;;;;;;;13.00;9.13;;;;;;;2.79;91.56;96575.53;5021452;28;24495;-75
2022/03/28 05:28:40;;;;;;;13.32;9.18;;;;;;;2.78;90.86;96568.69;5031968;28;24448;-75
2022/03/28 05:31:07;;;;;;;15.10;8.70;;;;;;;2.71;90.31;96570.56;5031820;28;24844;-76
2022/03/28 05:33:34;;;;;;;12.27;8.52;;;;;;;2.24;94.97;96567.13;5033773;28;24497;-76
2022/03/28 05:36:00;;;;;;;12.05;8.95;;;;;;;1.98;98.88;96574.41;5033648;28;24451;-77
2022/03/28 05:38:29;;;;;;;17.70;9.55;;;;;;;1.79;100.00;96563.63;5034186;28;24489;-77
2022/03/28 05:40:56;;;;;;;13.57;10.07;;;;;;;1.69;100.00;96573.97;5017596;28;24483;-76
2022/03/28 05:43:23;;;;;;;17.98;10.82;;;;;;;1.66;100.00;96574.00;5033578;28;24486;-76
2022/03/28 05:45:50;;;;;;;16.85;10.32;;;;;;;1.63;100.00;96571.53;5033400;28;24992;-76
2022/03/28 05:48:16;;;;;;;13.45;9.80;;;;;;;1.69;100.00;96570.59;5033400;28;24993;-75
2022/03/28 05:50:43;;;;;;;13.75;10.98;;;;;;;1.81;100.00;96567.81;5033204;28;24434;-75
2022/03/28 05:53:13;;;;;;;14.70;10.52;;;;;;;1.86;100.00;96566.06;5033297;28;24432;-74
2022/03/28 05:55:41;;;;;;;13.63;9.90;;;;;;;1.91;100.00;96558.31;5033525;28;24867;-75
2022/03/28 05:58:08;;;;;;;14.52;9.52;;;;;;;1.99;100.00;96568.41;5033217;28;25199;-75
2022/03/28 06:00:35;;;;;;;12.32;8.40;;;;;;;1.97;100.00;96559.94;5032728;28;24455;-74
2022/03/28 06:03:01;;;;;;;11.88;9.18;;;;;;;2.04;100.00;96564.94;5032232;28;24471;-74
2022/03/28 06:05:28;;;;;;;17.50;9.38;;;;;;;2.21;100.00;96561.22;5032469;28;24447;-74
2022/03/28 06:07:54;;;;;;;12.43;8.97;;;;;;;2.48;100.00;96557.34;5032823;28;24443;-75
2022/03/28 06:10:21;;;;;;;10.73;8.03;;;;;;;2.83;100.00;96562.63;5032289;28;24859;-74
2022/03/28 06:12:48;;;;;;;9.35;7.55;;;;;;;3.00;98.44;96569.94;5032954;28;24435;-74
2022/03/28 06:15:15;;;;;;;11.07;7.90;;;;;;;3.13;98.05;96573.97;5032506;28;24443;-75
2022/03/28 06:17:43;;;;;;;13.88;7.95;;;;;;;3.17;98.09;96579.03;5032793;28;24440;-74
2022/03/28 06:20:11;;;;;;;9.93;7.85;;;;;;;3.28;98.74;96577.06;5030013;28;24459;-74
2022/03/28 06:22:37;;;;;;;19.92;8.90;;;;;;;3.42;99.62;96574.22;5029555;28;24431;-70
2022/03/28 06:25:05;;;;;;;12.27;8.63;;;;;;;3.53;99.66;96575.69;5032198;28;24475;-74
2022/03/28 06:27:32;;;;;;;15.48;8.70;;;;;;;3.67;99.90;96564.25;5032062;28;25226;-72
2022/03/28 06:30:00;;;;;;;14.63;8.75;;;;;;;3.69;100.00;96571.03;5032050;28;24439;-73
2022/03/28 06:32:26;;;;;;;19.07;9.63;;;;;;;3.89;100.00;96573.13;5031972;28;24435;-73
2022/03/28 06:34:52;;;;;;;12.87;8.83;;;;;;;4.09;100.00;96565.81;5031667;28;24605;-73
2022/03/28 06:37:22;;;;;;;15.73;8.77;;;;;;;4.29;100.00;96569.59;5027256;28;24514;-73
2022/03/28 06:39:49;;;;;;;13.45;9.05;;;;;;;4.47;99.14;96563.16;5022130;28;25211;-73
2022/03/28 06:42:15;;;;;;;15.77;9.20;;;;;;;4.71;97.50;96565.09;5024975;28;24509;-73
2022/03/28 06:44:42;;;;;;;14.25;9.75;;;;;;;4.91;96.79;96567.09;5031536;28;25019;-73
2022/03/28 06:47:10;;;;;;;27.05;9.80;;;;;;;5.01;95.25;96560.84;5029462;28;24443;-71
2022/03/28 06:49:37;;;;;;;11.77;9.23;;;;;;;5.17;93.56;96558.66;5031332;28;24439;-73
2022/03/28 06:52:04;;;;;;;21.48;10.45;;;;;;;5.25;93.07;96559.28;5015590;28;24993;-72
2022/03/28 06:54:30;;;;;;;16.15;9.60;;;;;;;5.42;92.52;96553.66;5031409;28;24805;-75
2022/03/28 06:56:57;;;;;;;18.42;9.60;;;;;;;5.64;90.64;96558.16;5023550;28;24507;-74
2022/03/28 06:59:24;;;;;;;13.23;9.13;;;;;;;5.86;89.61;96550.59;5021398;28;24440;-73
2022/03/28 07:01:50;;;;;;;13.18;9.50;;;;;;;6.09;86.09;96549.91;5031333;28;25086;-71
2022/03/28 07:04:20;;;;;;;12.85;9.93;;;;;;;6.37;86.81;96552.38;5024468;28;24840;-72
2022/03/28 07:06:46;;;;;;;18.52;10.88;;;;;;;6.58;84.01;96548.25;5031289;28;24436;-72
2022/03/28 07:09:12;;;;;;;12.93;10.25;;;;;;;6.85;84.83;96543.84;5025404;28;24435;-72
2022/03/28 07:11:39;;;;;;;15.70;9.60;;;;;;;6.87;76.91;96547.22;5025949;28;24543;-72
2022/03/28 07:14:05;;;;;;;12.18;9.68;;;;;;;7.10;77.87;96547.22;5024391;28;24447;-72
2022/03/28 07:16:32;;;;;;;13.38;9.65;;;;;;;7.24;74.73;96544.16;5025867;28;24443;-72
2022/03/28 07:18:58;;;;;;;13.18;9.80;;;;;;;7.51;76.09;96542.25;5021878;28;24432;-72
2022/03/28 07:21:26;;;;;;;16.42;10.65;;;;;;;7.37;71.70;96542.78;5021898;28;24520;-73
2022/03/28 07:23:53;;;;;;;18.02;11.10;;;;;;;7.26;71.83;96543.19;5025929;28;25023;-73
2022/03/28 07:26:20;;;;;;;14.85;10.63;;;;;;;7.19;70.72;96543.47;5029346;28;24440;-72
2022/03/28 07:28:47;;;;;;;16.10;10.48;;;;;;;7.07;70.91;96541.34;5030778;28;20781;-73
2022/03/28 07:31:14;;;;;;;18.65;10.55;;;;;;;7.05;71.71;96541.41;5028390;28;24443;-73
2022/03/28 07:33:41;;;;;;;12.07;9.70;;;;;;;7.35;72.20;96536.88;5029370;28;20772;-74
2022/03/28 07:36:09;;;;;;;19.48;10.75;;;;;;;7.71;68.83;96537.19;5031051;28;24440;-73
2022/03/28 07:38:37;;;;;;;14.32;10.52;;;;;;;7.83;68.94;96532.44;5017661;28;24977;-73
2022/03/28 07:41:04;;;;;;;19.00;10.65;;;;;;;8.16;66.54;96541.41;5028340;28;24463;-73
2022/03/28 07:43:32;;;;;;;15.43;10.43;;;;;;;8.08;66.67;96534.84;5027195;28;24436;-74
2022/03/28 07:45:59;;;;;;;15.25;10.15;;;;;;;7.91;67.20;96538.13;5030737;28;24530;-76
2022/03/28 07:48:27;;;;;;;15.17;10.60;;;;;;;7.56;68.58;96529.19;5031057;28;24535;-75
2022/03/28 07:50:55;;;;;;;13.38;10.25;;;;;;;7.69;68.92;96527.81;5025267;28;24506;-74
2022/03/28 07:53:22;;;;;;;16.25;11.10;;;;;;;7.76;69.19;96526.69;5027476;28;20859;-75
2022/03/28 07:55:49;;;;;;;15.93;10.75;;;;;;;8.04;68.39;96531.56;5023243;28;20803;-74
2022/03/28 07:58:16;;;;;;;17.30;10.23;;;;;;;8.37;67.67;96524.22;5022953;28;24817;-74
2022/03/28 08:00:42;;;;;;;13.40;10.73;;;;;;;8.53;66.77;96519.25;5030001;28;24458;-74
2022/03/28 08:03:09;;;;;;;15.97;10.60;;;;;;;8.57;67.02;96519.97;5030071;28;24446;-74
2022/03/28 08:05:36;;;;;;;18.67;10.57;;;;;;;8.73;66.47;96516.63;5026430;28;21152;-76
2022/03/28 08:08:02;;;;;;;21.40;12.00;;;;;;;9.04;65.65;96523.03;5020728;28;24802;-74
2022/03/28 08:10:28;;;;;;;16.25;11.70;;;;;;;9.27;64.84;96510.81;5029806;28;24436;-74
2022/03/28 08:12:57;;;;;;;15.50;11.77;;;;;;;9.63;65.41;96511.69;5030046;28;24470;-74
2022/03/28 08:15:24;;;;;;;14.38;11.18;;;;;;;10.33;65.39;96510.06;5028833;28;21314;-74
2022/03/28 08:17:51;;;;;;;16.77;11.20;;;;;;;10.69;63.18;96505.69;5030114;28;20776;-74
2022/03/28 08:20:18;;;;;;;20.40;12.02;;;;;;;11.28;60.53;96502.53;5029537;28;20768;-74
2022/03/28 08:22:49;;;;;;;17.45;11.00;;;;;;;11.72;61.14;96501.03;5029532;28;24432;-73
2022/03/28 08:25:16;;;;;;;15.65;11.50;;;;;;;12.15;61.49;96504.66;5029925;28;24547;-73
2022/03/28 08:27:43;;;;;;;21.30;12.52;;;;;;;12.50;57.13;96501.78;5023123;28;24447;-74
2022/03/28 08:30:12;;;;;;;18.83;13.27;;;;;;;12.21;52.02;96500.88;5017935;28;24432;-74
2022/03/28 08:32:40;;;;;;;19.33;12.60;;;;;;;12.04;52.91;96494.88;5016741;28;24539;-73
2022/03/28 08:35:08;;;;;;;18.15;12.55;;;;;;;12.38;52.68;96500.72;5022134;28;24481;-75
2022/03/28 08:37:34;;;;;;;16.63;12.48;;;;;;;12.88;56.71;96501.28;5025807;28;24527;-74
2022/03/28 08:40:01;;;;;;;28.55;13.30;;;;;;;13.10;50.64;96487.81;5012132;28;24974;-76
2022/03/28 08:42:27;;;;;;;21.75;12.50;;;;;;;13.55;52.65;96484.13;5025432;28;24535;-75
2022/03/28 08:44:54;;;;;;;17.17;12.02;;;;;;;13.93;50.21;96484.28;5027645;28;24448;-75
2022/03/28 08:47:24;;;;;;;18.05;12.25;;;;;;;14.23;49.84;96488.41;5030773;28;24426;-75
2022/03/28 08:49:53;;;;;;;16.17;12.65;;;;;;;14.65;50.51;96482.16;5031240;28;24428;-75
2022/03/28 08:52:21;;;;;;;22.77;12.60;;;;;;;14.80;50.66;96477.66;5030908;28;24411;-76
2022/03/28 08:54:48;;;;;;;18.83;13.90;;;;;;;14.57;45.34;96476.59;5027107;28;24464;-75
2022/03/28 08:57:17;;;;;;;19.83;13.70;;;;;;;14.50;45.76;96477.97;5030869;28;24467;-76
2022/03/28 08:59:43;;;;;;;18.00;12.33;;;;;;;14.91;48.30;96471.72;5030757;28;24563;-76
2022/03/28 09:02:38;;;;;;;17.65;13.05;;;;;;;14.99;44.95;96472.84;5030522;28;24454;-75
2022/03/28 09:05:06;;;;;;;18.47;13.53;;;;;;;14.92;44.84;96470.78;5030377;28;24431;-75
2022/03/28 09:07:32;;;;;;;22.08;13.50;;;;;;;15.20;46.93;96465.31;5022559;28;24509;-75
2022/03/28 09:10:00;;;;;;;22.23;14.35;;;;;;;15.36;44.17;96465.06;5030418;28;24426;-76
2022/03/28 09:12:29;;;;;;;20.30;13.10;;;;;;;15.80;45.39;96462.84;5024213;28;20762;-76
2022/03/28 09:14:58;;;;;;;16.63;12.80;;;;;;;16.07;43.86;96450.38;5029962;28;24432;-76
2022/03/28 09:17:26;;;;;;;16.98;12.48;;;;;;;16.39;47.82;96450.59;5000252;23;24556;-71
2022/03/28 09:19:55;;;;;;;20.15;12.98;;;;;;;16.60;44.60;96445.50;4942496;29;24485;-71
2022/03/28 09:22:24;;;;;;;18.23;12.25;;;;;;;16.75;41.60;96445.31;4934055;29;24439;-71
2022/03/28 09:24:52;;;;;;;18.20;12.60;;;;;;;16.72;42.47;96441.13;4933781;29;24422;-72
2022/03/28 09:27:21;;;;;;;17.50;12.20;;;;;;;17.07;41.37;96442.84;4933511;29;24442;-72
2022/03/28 09:30:03;;;;;;;19.05;12.63;;;;;;;17.01;39.79;96436.28;4939780;29;24529;-72
2022/03/28 09:32:31;;;;;;;21.65;12.80;;;;;;;16.83;38.88;96437.72;4939764;29;25045;-72
2022/03/28 09:35:21;;;;;;;18.25;11.60;;;;;;;16.83;40.14;96435.91;4934439;29;24486;-73
2022/03/28 09:37:58;;;;;;;17.85;12.52;;;;;;;17.14;37.27;96431.75;4932106;29;24439;-73
2022/03/28 09:40:31;;;;;;;16.52;11.82;;;;;;;16.99;39.62;96424.28;4933441;29;24445;-73
2022/03/28 09:42:59;;;;;;;18.40;12.43;;;;;;;16.97;38.42;96419.16;4934083;29;24455;-72
2022/03/28 09:45:27;;;;;;;20.65;13.00;;;;;;;16.87;37.24;96416.44;4935015;29;24449;-72
2022/03/28 09:47:59;;;;;;;20.13;12.70;;;;;;;17.02;38.28;96414.41;4933695;29;24458;-73
2022/03/28 09:50:32;;;;;;;19.67;13.00;;;;;;;17.07;38.27;96404.41;4936815;29;24479;-71
2022/03/28 09:53:10;;;;;;;22.33;12.63;;;;;;;17.60;38.92;96407.13;4922013;29;24517;-71
2022/03/28 09:55:57;;;;;;;18.88;12.77;;;;;;;17.53;37.03;96403.34;4936333;29;24457;-72
2022/03/28 09:58:38;;;;;;;18.67;12.70;;;;;;;17.77;38.09;96391.91;4933816;29;24453;-71
2022/03/28 10:01:08;;;;;;;19.02;12.32;;;;;;;18.21;38.21;96393.47;4921704;29;24497;-71
2022/03/28 10:03:36;;;;;;;19.45;12.63;;;;;;;18.65;36.87;96388.03;4936873;29;24475;-71
2022/03/28 10:06:05;;;;;;;15.37;11.60;;;;;;;18.55;34.51;96393.25;4936657;29;24865;-71
2022/03/28 10:08:33;;;;;;;18.37;11.57;;;;;;;18.74;32.90;96392.53;4936342;29;24493;-71
2022/03/28 10:11:00;;;;;;;18.50;11.30;;;;;;;19.18;34.44;96382.63;4924352;29;24813;-71
2022/03/28 10:13:29;;;;;;;16.03;11.30;;;;;;;18.95;32.11;96379.34;4936505;29;24439;-71
2022/03/28 10:15:56;;;;;;;17.40;11.27;;;;;;;19.39;33.86;96374.63;4936224;29;24493;-72
2022/03/28 10:18:22;;;;;;;18.80;11.52;;;;;;;19.91;32.77;96376.09;4936544;29;24438;-72
2022/03/28 10:20:54;;;;;;;24.30;11.68;;;;;;;19.71;29.02;96369.97;4936022;29;24443;-72
2022/03/28 10:23:26;;;;;;;19.83;11.18;;;;;;;19.41;28.91;96370.91;4936407;29;24518;-71
2022/03/28 10:25:56;;;;;;;20.08;12.18;;;;;;;19.03;29.51;96361.16;4936328;29;24763;-71
2022/03/28 10:28:22;;;;;;;17.23;11.70;;;;;;;19.07;30.61;96359.91;4935960;29;24479;-72
2022/03/28 10:30:49;;;;;;;17.35;11.30;;;;;;;19.31;28.89;96356.91;4936132;29;24482;-72
2022/03/28 10:33:18;;;;;;;14.82;10.27;;;;;;;19.31;29.87;96349.84;4936028;29;24442;-72
2022/03/28 10:35:59;;;;;;;14.55;10.32;;;;;;;19.09;28.89;96340.41;4935822;29;24442;-72
2022/03/28 10:38:27;;;;;;;13.60;10.15;;;;;;;19.47;30.77;96338.84;4935862;29;25016;-71
2022/03/28 10:40:57;;;;;;;12.70;9.98;;;;;;;19.49;28.04;96339.50;4935734;29;24433;-72
2022/03/28 10:43:25;;;;;;;13.30;9.50;;;;;;;19.69;28.10;96334.28;4935713;29;24817;-72
2022/03/28 10:45:54;;;;;;;11.82;9.73;;;;;;;19.50;26.07;96325.41;4935680;29;24474;-72
2022/03/28 10:48:36;;;;;;;13.80;9.88;;;;;;;19.71;27.04;96321.84;4935891;29;24537;-71
2022/03/28 10:51:08;;;;;;;13.03;9.33;;;;;;;19.76;25.98;96320.47;4935608;29;24449;-72
2022/03/28 10:53:40;;;;;;;13.27;9.63;;;;;;;19.51;25.07;96318.38;4935363;29;24439;-72
2022/03/28 10:56:11;;;;;;;17.00;9.43;;;;;;;19.33;25.21;96307.72;4934598;29;24996;-71
2022/03/28 10:58:39;;;;;;;14.35;10.38;;;;;;;19.21;25.97;96306.19;4934238;29;24454;-72
2022/03/28 11:01:33;;;;;;;16.07;10.00;;;;;;;19.13;25.92;96308.66;4935824;29;24956;-72
2022/03/28 11:04:06;;;;;;;17.50;9.23;;;;;;;19.12;25.79;96296.50;4923622;29;25004;-72
2022/03/28 11:07:04;;;;;;;13.05;9.13;;;;;;;19.29;26.20;96290.59;4933149;29;25023;-72
2022/03/28 11:09:47;;;;;;;17.77;10.70;;;;;;;19.00;25.15;96296.63;4906186;29;24551;-72
2022/03/28 11:12:16;;;;;;;14.32;9.98;;;;;;;18.73;25.08;96294.63;4932526;29;24951;-73
2022/03/28 11:14:46;;;;;;;13.57;9.87;;;;;;;18.59;25.31;96289.72;4925098;29;24450;-73
2022/03/28 11:17:17;;;;;;;12.48;9.40;;;;;;;18.81;26.28;96286.09;4926361;29;24537;-72
2022/03/28 11:19:58;;;;;;;13.50;10.10;;;;;;;18.90;27.20;96287.88;4936366;29;24449;-73
2022/03/28 11:22:52;;;;;;;13.70;9.40;;;;;;;18.97;26.66;96286.38;4939160;29;24450;-73
2022/03/28 11:25:51;;;;;;;16.45;9.60;;;;;;;18.96;25.31;96291.78;4926110;29;24513;-72
2022/03/28 11:28:26;;;;;;;14.57;9.57;;;;;;;18.89;25.36;96280.16;4934596;29;24530;-72
2022/03/28 11:31:06;;;;;;;13.80;9.27;;;;;;;18.67;24.59;96283.78;4923696;29;25035;-72
2022/03/28 11:33:36;;;;;;;13.32;9.18;;;;;;;18.69;25.78;96276.59;4934672;29;24849;-72